sensor_id;sensor_type;location;lat;lon;timestamp;temperature;humidity
66013;DHT22;52783;50.502;8.190;2023-04-08T00:00:44;5.50;99.90
66013;DHT22;52783;50.502;8.190;2023-04-08T00:03:10;5.50;99.90
66013;DHT22;52783;50.502;8.190;2023-04-08T00:05:35;5.40;99.90
66013;DHT22;52783;50.502;8.190;2023-04-08T00:08:01;5.50;99.90
66013;DHT22;52783;50.502;8.190;2023-04-08T00:10:26;5.50;99.90
66013;DHT22;52783;50.502;8.190;2023-04-08T00:12:52;5.50;99.90
66013;DHT22;52783;50.502;8.190;2023-04-08T00:15:17;5.60;99.90
66013;DHT22;52783;50.502;8.190;2023-04-08T00:17:43;5.60;99.90
66013;DHT22;52783;50.502;8.190;2023-04-08T00:20:09;5.50;99.90
66013;DHT22;52783;50.502;8.190;2023-04-08T00:22:35;5.60;99.90
66013;DHT22;52783;50.502;8.190;2023-04-08T00:25:01;5.60;99.90
66013;DHT22;52783;50.502;8.190;2023-04-08T00:27:27;5.60;99.90
66013;DHT22;52783;50.502;8.190;2023-04-08T00:29:52;5.60;99.90
66013;DHT22;52783;50.502;8.190;2023-04-08T00:32:18;5.60;99.90
66013;DHT22;52783;50.502;8.190;2023-04-08T00:34:43;5.60;99.90
66013;DHT22;52783;50.502;8.190;2023-04-08T00:37:09;5.60;99.90
66013;DHT22;52783;50.502;8.190;2023-04-08T00:39:36;5.60;99.90
66013;DHT22;52783;50.502;8.190;2023-04-08T00:42:02;5.60;99.90
66013;DHT22;52783;50.502;8.190;2023-04-08T00:44:27;5.70;99.90
66013;DHT22;52783;50.502;8.190;2023-04-08T00:46:53;5.70;99.90
66013;DHT22;52783;50.502;8.190;2023-04-08T00:49:19;5.80;99.90
66013;DHT22;52783;50.502;8.190;2023-04-08T00:51:44;5.80;99.90
66013;DHT22;52783;50.502;8.190;2023-04-08T00:54:10;5.80;99.90
66013;DHT22;52783;50.502;8.190;2023-04-08T00:56:35;5.90;99.90
66013;DHT22;52783;50.502;8.190;2023-04-08T00:59:02;5.90;99.90
66013;DHT22;52783;50.502;8.190;2023-04-08T01:01:50;5.90;99.90
66013;DHT22;52783;50.502;8.190;2023-04-08T01:04:38;5.90;99.90
66013;DHT22;52783;50.502;8.190;2023-04-08T01:07:37;5.90;99.90
66013;DHT22;52783;50.502;8.190;2023-04-08T01:10:14;6.00;99.90
66013;DHT22;52783;50.502;8.190;2023-04-08T01:12:50;5.90;99.90
66013;DHT22;52783;50.502;8.190;2023-04-08T01:15:17;6.00;99.90
66013;DHT22;52783;50.502;8.190;2023-04-08T01:17:43;5.90;99.90
66013;DHT22;52783;50.502;8.190;2023-04-08T01:20:10;6.00;99.90
66013;DHT22;52783;50.502;8.190;2023-04-08T01:25:25;6.10;99.90
66013;DHT22;52783;50.502;8.190;2023-04-08T01:27:52;6.10;99.90
66013;DHT22;52783;50.502;8.190;2023-04-08T01:30:22;6.10;99.90
66013;DHT22;52783;50.502;8.190;2023-04-08T01:32:49;6.20;99.90
66013;DHT22;52783;50.502;8.190;2023-04-08T01:35:16;6.10;99.90
66013;DHT22;52783;50.502;8.190;2023-04-08T01:37:43;6.20;99.90
66013;DHT22;52783;50.502;8.190;2023-04-08T01:40:10;6.20;99.90
66013;DHT22;52783;50.502;8.190;2023-04-08T01:42:37;6.20;99.90
66013;DHT22;52783;50.502;8.190;2023-04-08T01:45:03;6.20;99.90
66013;DHT22;52783;50.502;8.190;2023-04-08T01:47:30;6.10;99.90
66013;DHT22;52783;50.502;8.190;2023-04-08T01:49:57;6.10;99.90
66013;DHT22;52783;50.502;8.190;2023-04-08T01:52:24;6.10;99.90
66013;DHT22;52783;50.502;8.190;2023-04-08T01:54:51;6.10;99.90
66013;DHT22;52783;50.502;8.190;2023-04-08T01:57:22;6.00;99.90
66013;DHT22;52783;50.502;8.190;2023-04-08T01:59:50;6.00;99.90
66013;DHT22;52783;50.502;8.190;2023-04-08T02:02:19;5.90;99.90
66013;DHT22;52783;50.502;8.190;2023-04-08T02:04:45;5.90;99.90
66013;DHT22;52783;50.502;8.190;2023-04-08T02:07:11;5.80;99.90
66013;DHT22;52783;50.502;8.190;2023-04-08T02:09:37;5.80;99.90
66013;DHT22;52783;50.502;8.190;2023-04-08T02:12:02;5.70;99.90
66013;DHT22;52783;50.502;8.190;2023-04-08T02:14:28;5.80;99.90
66013;DHT22;52783;50.502;8.190;2023-04-08T02:20:07;5.70;99.90
66013;DHT22;52783;50.502;8.190;2023-04-08T02:22:39;5.70;99.90
66013;DHT22;52783;50.502;8.190;2023-04-08T02:25:12;5.60;99.90
66013;DHT22;52783;50.502;8.190;2023-04-08T02:27:39;5.60;99.90
66013;DHT22;52783;50.502;8.190;2023-04-08T02:30:07;5.50;99.90
66013;DHT22;52783;50.502;8.190;2023-04-08T02:32:33;5.50;99.90
66013;DHT22;52783;50.502;8.190;2023-04-08T02:35:00;5.60;99.90
66013;DHT22;52783;50.502;8.190;2023-04-08T02:37:30;5.50;99.90
66013;DHT22;52783;50.502;8.190;2023-04-08T02:39:56;5.50;99.90
66013;DHT22;52783;50.502;8.190;2023-04-08T02:42:21;5.50;99.90
66013;DHT22;52783;50.502;8.190;2023-04-08T02:44:47;5.40;99.90
66013;DHT22;52783;50.502;8.190;2023-04-08T02:47:13;5.40;99.90
66013;DHT22;52783;50.502;8.190;2023-04-08T02:49:38;5.30;99.90
66013;DHT22;52783;50.502;8.190;2023-04-08T02:52:04;5.30;99.90
66013;DHT22;52783;50.502;8.190;2023-04-08T02:54:29;5.20;99.90
66013;DHT22;52783;50.502;8.190;2023-04-08T02:56:55;5.10;99.90
66013;DHT22;52783;50.502;8.190;2023-04-08T02:59:21;5.00;99.90
66013;DHT22;52783;50.502;8.190;2023-04-08T03:01:46;5.00;99.90
66013;DHT22;52783;50.502;8.190;2023-04-08T03:04:11;4.90;99.90
66013;DHT22;52783;50.502;8.190;2023-04-08T03:06:37;4.80;99.90
66013;DHT22;52783;50.502;8.190;2023-04-08T03:09:03;4.70;99.90
66013;DHT22;52783;50.502;8.190;2023-04-08T03:11:30;4.70;99.90
66013;DHT22;52783;50.502;8.190;2023-04-08T03:13:55;4.70;99.90
66013;DHT22;52783;50.502;8.190;2023-04-08T03:16:21;4.70;99.90
66013;DHT22;52783;50.502;8.190;2023-04-08T03:18:48;4.70;99.90
66013;DHT22;52783;50.502;8.190;2023-04-08T03:21:14;4.70;99.90
66013;DHT22;52783;50.502;8.190;2023-04-08T03:23:40;4.70;99.90
66013;DHT22;52783;50.502;8.190;2023-04-08T03:26:05;4.70;99.90
66013;DHT22;52783;50.502;8.190;2023-04-08T03:28:31;4.60;99.90
66013;DHT22;52783;50.502;8.190;2023-04-08T03:30:56;4.60;99.90
66013;DHT22;52783;50.502;8.190;2023-04-08T03:33:22;4.50;99.90
66013;DHT22;52783;50.502;8.190;2023-04-08T03:35:47;4.40;99.90
66013;DHT22;52783;50.502;8.190;2023-04-08T03:38:13;4.40;99.90
66013;DHT22;52783;50.502;8.190;2023-04-08T03:40:38;4.40;99.90
66013;DHT22;52783;50.502;8.190;2023-04-08T03:43:04;4.40;99.90
66013;DHT22;52783;50.502;8.190;2023-04-08T03:45:33;4.30;99.90
66013;DHT22;52783;50.502;8.190;2023-04-08T03:47:58;4.30;99.90
66013;DHT22;52783;50.502;8.190;2023-04-08T03:50:24;4.30;99.90
66013;DHT22;52783;50.502;8.190;2023-04-08T03:52:49;4.30;99.90
66013;DHT22;52783;50.502;8.190;2023-04-08T03:55:15;4.20;99.90
66013;DHT22;52783;50.502;8.190;2023-04-08T03:57:40;4.20;99.90
66013;DHT22;52783;50.502;8.190;2023-04-08T04:00:06;4.10;99.90
66013;DHT22;52783;50.502;8.190;2023-04-08T04:02:32;4.10;99.90
66013;DHT22;52783;50.502;8.190;2023-04-08T04:04:58;4.10;99.90
66013;DHT22;52783;50.502;8.190;2023-04-08T04:07:23;4.00;99.90
66013;DHT22;52783;50.502;8.190;2023-04-08T04:09:49;4.00;99.90
66013;DHT22;52783;50.502;8.190;2023-04-08T04:12:18;3.90;99.90
66013;DHT22;52783;50.502;8.190;2023-04-08T04:14:43;3.90;99.90
66013;DHT22;52783;50.502;8.190;2023-04-08T04:17:09;3.90;99.90
66013;DHT22;52783;50.502;8.190;2023-04-08T04:19:34;3.90;99.90
66013;DHT22;52783;50.502;8.190;2023-04-08T04:22:01;3.90;99.90
66013;DHT22;52783;50.502;8.190;2023-04-08T04:24:26;3.80;99.90
66013;DHT22;52783;50.502;8.190;2023-04-08T04:26:52;3.80;99.90
66013;DHT22;52783;50.502;8.190;2023-04-08T04:29:17;3.70;99.90
66013;DHT22;52783;50.502;8.190;2023-04-08T04:31:43;3.70;99.90
66013;DHT22;52783;50.502;8.190;2023-04-08T04:34:08;3.70;99.90
66013;DHT22;52783;50.502;8.190;2023-04-08T04:36:34;3.70;99.90
66013;DHT22;52783;50.502;8.190;2023-04-08T04:38:59;3.60;99.90
66013;DHT22;52783;50.502;8.190;2023-04-08T04:41:25;3.70;99.90
66013;DHT22;52783;50.502;8.190;2023-04-08T04:43:51;3.60;99.90
66013;DHT22;52783;50.502;8.190;2023-04-08T04:46:17;3.60;99.90
66013;DHT22;52783;50.502;8.190;2023-04-08T04:48:42;3.60;99.90
66013;DHT22;52783;50.502;8.190;2023-04-08T04:51:08;3.60;99.90
66013;DHT22;52783;50.502;8.190;2023-04-08T04:53:33;3.50;99.90
66013;DHT22;52783;50.502;8.190;2023-04-08T04:55:59;3.50;99.90
66013;DHT22;52783;50.502;8.190;2023-04-08T04:58:28;3.50;99.90
66013;DHT22;52783;50.502;8.190;2023-04-08T05:00:54;3.50;99.90
66013;DHT22;52783;50.502;8.190;2023-04-08T05:03:20;3.40;99.90
66013;DHT22;52783;50.502;8.190;2023-04-08T05:05:52;3.40;99.90
66013;DHT22;52783;50.502;8.190;2023-04-08T05:08:19;3.30;99.90
66013;DHT22;52783;50.502;8.190;2023-04-08T05:10:45;3.30;99.90
66013;DHT22;52783;50.502;8.190;2023-04-08T05:13:10;3.30;99.90
66013;DHT22;52783;50.502;8.190;2023-04-08T05:15:36;3.30;99.90
66013;DHT22;52783;50.502;8.190;2023-04-08T05:18:01;3.40;99.90
66013;DHT22;52783;50.502;8.190;2023-04-08T05:20:27;3.40;99.90
66013;DHT22;52783;50.502;8.190;2023-04-08T05:22:52;3.40;99.90
66013;DHT22;52783;50.502;8.190;2023-04-08T05:25:18;3.40;99.90
66013;DHT22;52783;50.502;8.190;2023-04-08T05:27:44;3.50;99.90
66013;DHT22;52783;50.502;8.190;2023-04-08T05:30:10;3.40;99.90
66013;DHT22;52783;50.502;8.190;2023-04-08T05:32:36;3.50;99.90
66013;DHT22;52783;50.502;8.190;2023-04-08T05:35:02;3.60;99.90
66013;DHT22;52783;50.502;8.190;2023-04-08T05:37:28;3.60;99.90
66013;DHT22;52783;50.502;8.190;2023-04-08T05:39:53;3.60;99.90
66013;DHT22;52783;50.502;8.190;2023-04-08T05:42:19;3.60;99.90
66013;DHT22;52783;50.502;8.190;2023-04-08T05:44:44;3.60;99.90
66013;DHT22;52783;50.502;8.190;2023-04-08T05:47:10;3.80;99.90
66013;DHT22;52783;50.502;8.190;2023-04-08T05:49:35;3.70;99.90
66013;DHT22;52783;50.502;8.190;2023-04-08T05:52:01;3.80;99.90
66013;DHT22;52783;50.502;8.190;2023-04-08T05:54:28;3.80;99.90
66013;DHT22;52783;50.502;8.190;2023-04-08T05:56:53;3.80;99.90
66013;DHT22;52783;50.502;8.190;2023-04-08T05:59:19;3.80;99.90
66013;DHT22;52783;50.502;8.190;2023-04-08T06:01:45;3.90;99.90
66013;DHT22;52783;50.502;8.190;2023-04-08T06:04:10;3.90;99.90
66013;DHT22;52783;50.502;8.190;2023-04-08T06:06:38;4.00;99.90
66013;DHT22;52783;50.502;8.190;2023-04-08T06:09:04;4.00;99.90
66013;DHT22;52783;50.502;8.190;2023-04-08T06:11:30;4.10;99.90
66013;DHT22;52783;50.502;8.190;2023-04-08T06:13:55;4.10;99.90
66013;DHT22;52783;50.502;8.190;2023-04-08T06:16:21;4.20;99.90
66013;DHT22;52783;50.502;8.190;2023-04-08T06:18:47;4.20;99.90
66013;DHT22;52783;50.502;8.190;2023-04-08T06:21:13;4.30;99.90
66013;DHT22;52783;50.502;8.190;2023-04-08T06:23:38;4.40;99.90
66013;DHT22;52783;50.502;8.190;2023-04-08T06:26:04;4.50;99.90
66013;DHT22;52783;50.502;8.190;2023-04-08T06:28:29;4.60;99.90
66013;DHT22;52783;50.502;8.190;2023-04-08T06:30:55;4.70;99.90
66013;DHT22;52783;50.502;8.190;2023-04-08T06:33:21;4.80;99.90
66013;DHT22;52783;50.502;8.190;2023-04-08T06:35:46;4.90;99.90
66013;DHT22;52783;50.502;8.190;2023-04-08T06:38:12;4.90;99.90
66013;DHT22;52783;50.502;8.190;2023-04-08T06:40:38;5.00;99.90
66013;DHT22;52783;50.502;8.190;2023-04-08T06:43:04;5.00;99.90
66013;DHT22;52783;50.502;8.190;2023-04-08T06:45:31;5.00;99.90
66013;DHT22;52783;50.502;8.190;2023-04-08T06:47:56;5.20;99.90
66013;DHT22;52783;50.502;8.190;2023-04-08T06:50:22;5.30;99.90
66013;DHT22;52783;50.502;8.190;2023-04-08T06:52:47;5.60;99.90
66013;DHT22;52783;50.502;8.190;2023-04-08T06:55:13;5.70;99.90
66013;DHT22;52783;50.502;8.190;2023-04-08T06:57:38;5.80;99.90
66013;DHT22;52783;50.502;8.190;2023-04-08T07:00:05;6.00;99.90
66013;DHT22;52783;50.502;8.190;2023-04-08T07:02:31;6.10;99.90
66013;DHT22;52783;50.502;8.190;2023-04-08T07:04:57;6.00;99.90
66013;DHT22;52783;50.502;8.190;2023-04-08T07:07:22;6.10;99.90
66013;DHT22;52783;50.502;8.190;2023-04-08T07:09:49;6.30;99.90
66013;DHT22;52783;50.502;8.190;2023-04-08T07:12:15;6.40;99.90
66013;DHT22;52783;50.502;8.190;2023-04-08T07:14:40;6.40;99.90
66013;DHT22;52783;50.502;8.190;2023-04-08T07:17:06;6.40;99.90
66013;DHT22;52783;50.502;8.190;2023-04-08T07:19:31;6.20;99.90
66013;DHT22;52783;50.502;8.190;2023-04-08T07:21:57;6.30;99.90
66013;DHT22;52783;50.502;8.190;2023-04-08T07:24:23;6.50;99.90
66013;DHT22;52783;50.502;8.190;2023-04-08T07:26:48;6.50;99.90
66013;DHT22;52783;50.502;8.190;2023-04-08T07:29:14;6.50;99.90
66013;DHT22;52783;50.502;8.190;2023-04-08T07:31:42;6.50;99.90
66013;DHT22;52783;50.502;8.190;2023-04-08T07:34:07;6.50;99.90
66013;DHT22;52783;50.502;8.190;2023-04-08T07:39:03;6.50;99.90
66013;DHT22;52783;50.502;8.190;2023-04-08T07:41:28;6.60;99.90
66013;DHT22;52783;50.502;8.190;2023-04-08T07:43:54;6.50;99.90
66013;DHT22;52783;50.502;8.190;2023-04-08T07:46:20;6.60;99.90
66013;DHT22;52783;50.502;8.190;2023-04-08T07:48:45;6.80;99.90
66013;DHT22;52783;50.502;8.190;2023-04-08T07:51:11;6.90;99.90
66013;DHT22;52783;50.502;8.190;2023-04-08T07:53:38;6.80;99.90
66013;DHT22;52783;50.502;8.190;2023-04-08T07:56:10;6.90;99.90
66013;DHT22;52783;50.502;8.190;2023-04-08T07:58:36;7.00;99.90
66013;DHT22;52783;50.502;8.190;2023-04-08T08:01:02;6.90;99.90
66013;DHT22;52783;50.502;8.190;2023-04-08T08:03:27;6.90;99.90
66013;DHT22;52783;50.502;8.190;2023-04-08T08:05:53;7.10;99.90
66013;DHT22;52783;50.502;8.190;2023-04-08T08:08:18;7.10;99.90
66013;DHT22;52783;50.502;8.190;2023-04-08T08:10:44;7.30;99.90
66013;DHT22;52783;50.502;8.190;2023-04-08T08:13:09;7.20;99.90
66013;DHT22;52783;50.502;8.190;2023-04-08T08:15:36;7.40;99.90
66013;DHT22;52783;50.502;8.190;2023-04-08T08:18:02;7.50;99.90
66013;DHT22;52783;50.502;8.190;2023-04-08T08:20:28;7.50;99.90
66013;DHT22;52783;50.502;8.190;2023-04-08T08:22:53;7.60;99.90
66013;DHT22;52783;50.502;8.190;2023-04-08T08:25:19;7.70;99.90
66013;DHT22;52783;50.502;8.190;2023-04-08T08:27:44;7.60;99.90
66013;DHT22;52783;50.502;8.190;2023-04-08T08:30:10;7.70;99.90
66013;DHT22;52783;50.502;8.190;2023-04-08T08:32:35;7.80;99.90
66013;DHT22;52783;50.502;8.190;2023-04-08T08:35:02;7.90;99.90
66013;DHT22;52783;50.502;8.190;2023-04-08T08:37:27;7.80;99.90
66013;DHT22;52783;50.502;8.190;2023-04-08T08:39:53;7.90;99.90
66013;DHT22;52783;50.502;8.190;2023-04-08T08:42:20;7.80;99.90
66013;DHT22;52783;50.502;8.190;2023-04-08T08:44:47;8.20;99.90
66013;DHT22;52783;50.502;8.190;2023-04-08T08:47:12;8.30;99.90
66013;DHT22;52783;50.502;8.190;2023-04-08T08:49:38;8.50;99.90
66013;DHT22;52783;50.502;8.190;2023-04-08T08:52:03;8.40;99.90
66013;DHT22;52783;50.502;8.190;2023-04-08T08:54:31;8.30;99.90
66013;DHT22;52783;50.502;8.190;2023-04-08T08:56:56;8.40;99.90
66013;DHT22;52783;50.502;8.190;2023-04-08T08:59:22;8.40;99.90
66013;DHT22;52783;50.502;8.190;2023-04-08T09:01:47;8.40;99.90
66013;DHT22;52783;50.502;8.190;2023-04-08T09:04:15;8.50;99.90
66013;DHT22;52783;50.502;8.190;2023-04-08T09:06:43;8.60;99.90
66013;DHT22;52783;50.502;8.190;2023-04-08T09:09:09;8.50;99.90
66013;DHT22;52783;50.502;8.190;2023-04-08T09:11:39;8.50;99.90
66013;DHT22;52783;50.502;8.190;2023-04-08T09:14:19;8.50;99.90
66013;DHT22;52783;50.502;8.190;2023-04-08T09:16:45;8.50;99.90
66013;DHT22;52783;50.502;8.190;2023-04-08T09:19:11;8.30;99.90
66013;DHT22;52783;50.502;8.190;2023-04-08T09:21:38;8.30;99.90
66013;DHT22;52783;50.502;8.190;2023-04-08T09:24:06;8.30;99.90
66013;DHT22;52783;50.502;8.190;2023-04-08T09:26:31;8.40;99.90
66013;DHT22;52783;50.502;8.190;2023-04-08T09:29:02;8.90;99.90
66013;DHT22;52783;50.502;8.190;2023-04-08T09:31:29;9.00;99.90
66013;DHT22;52783;50.502;8.190;2023-04-08T09:33:57;9.20;99.90
66013;DHT22;52783;50.502;8.190;2023-04-08T09:36:24;9.50;99.90
66013;DHT22;52783;50.502;8.190;2023-04-08T09:38:53;9.60;99.90
66013;DHT22;52783;50.502;8.190;2023-04-08T09:41:19;9.20;99.90
66013;DHT22;52783;50.502;8.190;2023-04-08T09:43:51;9.60;99.90
66013;DHT22;52783;50.502;8.190;2023-04-08T09:46:32;9.80;99.90
66013;DHT22;52783;50.502;8.190;2023-04-08T09:49:33;9.60;99.90
66013;DHT22;52783;50.502;8.190;2023-04-08T09:52:23;9.30;99.90
66013;DHT22;52783;50.502;8.190;2023-04-08T09:55:00;9.30;99.90
66013;DHT22;52783;50.502;8.190;2023-04-08T10:00:13;9.30;99.90
66013;DHT22;52783;50.502;8.190;2023-04-08T10:03:09;9.40;99.90
66013;DHT22;52783;50.502;8.190;2023-04-08T10:05:39;9.10;99.90
66013;DHT22;52783;50.502;8.190;2023-04-08T10:08:06;9.10;99.90
66013;DHT22;52783;50.502;8.190;2023-04-08T10:10:38;9.10;99.90
66013;DHT22;52783;50.502;8.190;2023-04-08T10:13:04;9.10;99.90
66013;DHT22;52783;50.502;8.190;2023-04-08T10:15:32;9.00;99.90
66013;DHT22;52783;50.502;8.190;2023-04-08T10:23:02;9.30;99.90
66013;DHT22;52783;50.502;8.190;2023-04-08T10:27:58;9.30;99.90
66013;DHT22;52783;50.502;8.190;2023-04-08T10:32:53;9.50;99.90
66013;DHT22;52783;50.502;8.190;2023-04-08T10:35:38;9.70;99.90
66013;DHT22;52783;50.502;8.190;2023-04-08T10:38:11;9.70;99.90
66013;DHT22;52783;50.502;8.190;2023-04-08T10:40:38;9.50;99.90
66013;DHT22;52783;50.502;8.190;2023-04-08T10:43:06;9.80;99.90
66013;DHT22;52783;50.502;8.190;2023-04-08T10:45:32;9.90;99.90
66013;DHT22;52783;50.502;8.190;2023-04-08T10:48:21;9.90;99.90
66013;DHT22;52783;50.502;8.190;2023-04-08T10:51:03;10.10;99.90
66013;DHT22;52783;50.502;8.190;2023-04-08T10:56:06;10.90;99.90
66013;DHT22;52783;50.502;8.190;2023-04-08T10:58:32;11.00;99.90
66013;DHT22;52783;50.502;8.190;2023-04-08T11:01:06;10.90;99.90
66013;DHT22;52783;50.502;8.190;2023-04-08T11:03:35;11.00;99.90
66013;DHT22;52783;50.502;8.190;2023-04-08T11:06:01;11.10;99.90
66013;DHT22;52783;50.502;8.190;2023-04-08T11:08:28;11.10;99.90
66013;DHT22;52783;50.502;8.190;2023-04-08T11:10:54;10.50;99.90
66013;DHT22;52783;50.502;8.190;2023-04-08T11:13:20;11.10;99.90
66013;DHT22;52783;50.502;8.190;2023-04-08T11:15:46;11.50;99.90
66013;DHT22;52783;50.502;8.190;2023-04-08T11:18:12;11.80;99.90
66013;DHT22;52783;50.502;8.190;2023-04-08T11:20:38;12.00;99.90
66013;DHT22;52783;50.502;8.190;2023-04-08T11:23:11;11.40;99.90
66013;DHT22;52783;50.502;8.190;2023-04-08T11:25:38;11.50;99.90
66013;DHT22;52783;50.502;8.190;2023-04-08T11:28:03;11.50;99.90
66013;DHT22;52783;50.502;8.190;2023-04-08T11:30:30;11.80;99.90
66013;DHT22;52783;50.502;8.190;2023-04-08T11:32:56;11.70;99.90
66013;DHT22;52783;50.502;8.190;2023-04-08T11:35:22;11.50;99.90
66013;DHT22;52783;50.502;8.190;2023-04-08T11:37:47;11.60;99.90
66013;DHT22;52783;50.502;8.190;2023-04-08T11:40:19;11.10;99.90
66013;DHT22;52783;50.502;8.190;2023-04-08T11:42:45;11.70;99.90
66013;DHT22;52783;50.502;8.190;2023-04-08T11:45:13;12.00;99.90
66013;DHT22;52783;50.502;8.190;2023-04-08T11:47:39;12.10;99.90
66013;DHT22;52783;50.502;8.190;2023-04-08T11:50:05;12.60;99.90
66013;DHT22;52783;50.502;8.190;2023-04-08T11:52:45;11.90;99.90
66013;DHT22;52783;50.502;8.190;2023-04-08T11:55:20;12.00;99.90
66013;DHT22;52783;50.502;8.190;2023-04-08T11:57:46;12.10;99.90
66013;DHT22;52783;50.502;8.190;2023-04-08T12:00:12;12.30;99.90
66013;DHT22;52783;50.502;8.190;2023-04-08T12:02:39;12.10;99.90
66013;DHT22;52783;50.502;8.190;2023-04-08T12:05:05;12.10;99.90
66013;DHT22;52783;50.502;8.190;2023-04-08T12:07:31;12.50;99.90
66013;DHT22;52783;50.502;8.190;2023-04-08T12:09:56;11.40;99.90
66013;DHT22;52783;50.502;8.190;2023-04-08T12:12:22;12.40;99.90
66013;DHT22;52783;50.502;8.190;2023-04-08T12:14:48;12.40;99.90
66013;DHT22;52783;50.502;8.190;2023-04-08T12:17:13;12.70;99.90
66013;DHT22;52783;50.502;8.190;2023-04-08T12:19:39;12.80;99.90
66013;DHT22;52783;50.502;8.190;2023-04-08T12:22:05;12.90;99.90
66013;DHT22;52783;50.502;8.190;2023-04-08T12:24:31;12.60;99.90
66013;DHT22;52783;50.502;8.190;2023-04-08T12:26:56;11.90;99.90
66013;DHT22;52783;50.502;8.190;2023-04-08T12:29:22;11.70;99.90
66013;DHT22;52783;50.502;8.190;2023-04-08T12:31:47;12.10;99.90
66013;DHT22;52783;50.502;8.190;2023-04-08T12:34:13;12.00;99.90
66013;DHT22;52783;50.502;8.190;2023-04-08T12:36:38;12.00;99.90
66013;DHT22;52783;50.502;8.190;2023-04-08T12:39:04;11.70;99.90
66013;DHT22;52783;50.502;8.190;2023-04-08T12:41:29;11.50;99.90
66013;DHT22;52783;50.502;8.190;2023-04-08T12:43:55;11.70;99.90
66013;DHT22;52783;50.502;8.190;2023-04-08T12:46:20;11.60;99.90
66013;DHT22;52783;50.502;8.190;2023-04-08T12:48:46;10.70;99.90
66013;DHT22;52783;50.502;8.190;2023-04-08T12:51:12;10.40;99.90
66013;DHT22;52783;50.502;8.190;2023-04-08T12:53:38;10.70;99.90
66013;DHT22;52783;50.502;8.190;2023-04-08T12:56:04;11.30;99.90
66013;DHT22;52783;50.502;8.190;2023-04-08T12:58:29;11.50;99.90
66013;DHT22;52783;50.502;8.190;2023-04-08T13:00:55;11.60;99.90
66013;DHT22;52783;50.502;8.190;2023-04-08T13:03:21;11.80;99.90
66013;DHT22;52783;50.502;8.190;2023-04-08T13:05:46;11.80;99.90
66013;DHT22;52783;50.502;8.190;2023-04-08T13:08:12;11.80;99.90
66013;DHT22;52783;50.502;8.190;2023-04-08T13:10:38;11.80;99.90
66013;DHT22;52783;50.502;8.190;2023-04-08T13:13:04;12.10;99.90
66013;DHT22;52783;50.502;8.190;2023-04-08T13:15:29;11.70;99.90
66013;DHT22;52783;50.502;8.190;2023-04-08T13:17:54;11.30;99.90
66013;DHT22;52783;50.502;8.190;2023-04-08T13:20:20;11.20;99.90
66013;DHT22;52783;50.502;8.190;2023-04-08T13:22:50;11.30;99.90
66013;DHT22;52783;50.502;8.190;2023-04-08T13:25:15;11.40;99.90
66013;DHT22;52783;50.502;8.190;2023-04-08T13:27:41;11.80;99.90
66013;DHT22;52783;50.502;8.190;2023-04-08T13:30:07;12.00;99.90
66013;DHT22;52783;50.502;8.190;2023-04-08T13:32:32;12.10;99.90
66013;DHT22;52783;50.502;8.190;2023-04-08T13:34:58;12.20;99.90
66013;DHT22;52783;50.502;8.190;2023-04-08T13:37:23;12.10;99.90
66013;DHT22;52783;50.502;8.190;2023-04-08T13:39:49;11.50;99.90
66013;DHT22;52783;50.502;8.190;2023-04-08T13:42:15;11.50;99.90
66013;DHT22;52783;50.502;8.190;2023-04-08T13:44:40;11.40;99.90
66013;DHT22;52783;50.502;8.190;2023-04-08T13:47:06;11.30;99.90
66013;DHT22;52783;50.502;8.190;2023-04-08T13:49:31;11.20;99.90
66013;DHT22;52783;50.502;8.190;2023-04-08T13:51:57;11.20;99.90
66013;DHT22;52783;50.502;8.190;2023-04-08T13:54:22;11.10;99.90
66013;DHT22;52783;50.502;8.190;2023-04-08T13:56:48;11.10;99.90
66013;DHT22;52783;50.502;8.190;2023-04-08T13:59:13;11.20;99.90
66013;DHT22;52783;50.502;8.190;2023-04-08T14:01:39;11.50;99.90
66013;DHT22;52783;50.502;8.190;2023-04-08T14:04:05;11.50;99.90
66013;DHT22;52783;50.502;8.190;2023-04-08T14:06:30;11.50;99.90
66013;DHT22;52783;50.502;8.190;2023-04-08T14:08:56;11.60;99.90
66013;DHT22;52783;50.502;8.190;2023-04-08T14:11:22;12.90;99.90
66013;DHT22;52783;50.502;8.190;2023-04-08T14:13:47;12.50;99.90
66013;DHT22;52783;50.502;8.190;2023-04-08T14:16:13;12.20;99.90
66013;DHT22;52783;50.502;8.190;2023-04-08T14:18:40;12.00;99.90
66013;DHT22;52783;50.502;8.190;2023-04-08T14:21:06;11.70;99.90
66013;DHT22;52783;50.502;8.190;2023-04-08T14:23:32;12.00;99.90
66013;DHT22;52783;50.502;8.190;2023-04-08T14:25:57;12.00;99.90
66013;DHT22;52783;50.502;8.190;2023-04-08T14:28:25;12.10;99.90
66013;DHT22;52783;50.502;8.190;2023-04-08T14:30:51;11.80;99.90
66013;DHT22;52783;50.502;8.190;2023-04-08T14:33:16;11.50;99.90
66013;DHT22;52783;50.502;8.190;2023-04-08T14:35:42;11.50;99.90
66013;DHT22;52783;50.502;8.190;2023-04-08T14:38:07;11.30;99.90
66013;DHT22;52783;50.502;8.190;2023-04-08T14:40:33;11.40;99.90
66013;DHT22;52783;50.502;8.190;2023-04-08T14:42:58;11.10;99.90
66013;DHT22;52783;50.502;8.190;2023-04-08T14:45:24;11.10;99.90
66013;DHT22;52783;50.502;8.190;2023-04-08T14:47:49;11.10;99.90
66013;DHT22;52783;50.502;8.190;2023-04-08T14:50:15;11.10;99.90
66013;DHT22;52783;50.502;8.190;2023-04-08T14:52:41;10.90;99.90
66013;DHT22;52783;50.502;8.190;2023-04-08T14:55:06;10.90;99.90
66013;DHT22;52783;50.502;8.190;2023-04-08T14:57:32;10.90;99.90
66013;DHT22;52783;50.502;8.190;2023-04-08T14:59:58;11.00;99.90
66013;DHT22;52783;50.502;8.190;2023-04-08T15:02:23;11.20;99.90
66013;DHT22;52783;50.502;8.190;2023-04-08T15:04:49;11.30;99.90
66013;DHT22;52783;50.502;8.190;2023-04-08T15:07:15;11.40;99.90
66013;DHT22;52783;50.502;8.190;2023-04-08T15:09:41;11.60;99.90
66013;DHT22;52783;50.502;8.190;2023-04-08T15:12:07;11.50;99.90
66013;DHT22;52783;50.502;8.190;2023-04-08T15:14:32;11.60;99.90
66013;DHT22;52783;50.502;8.190;2023-04-08T15:16:58;11.80;99.90
66013;DHT22;52783;50.502;8.190;2023-04-08T15:19:23;11.70;99.90
66013;DHT22;52783;50.502;8.190;2023-04-08T15:21:49;11.70;99.90
66013;DHT22;52783;50.502;8.190;2023-04-08T15:24:14;11.90;99.90
66013;DHT22;52783;50.502;8.190;2023-04-08T15:26:40;11.80;99.90
66013;DHT22;52783;50.502;8.190;2023-04-08T15:29:06;12.10;99.90
66013;DHT22;52783;50.502;8.190;2023-04-08T15:31:31;11.70;99.90
66013;DHT22;52783;50.502;8.190;2023-04-08T15:33:57;11.70;99.90
66013;DHT22;52783;50.502;8.190;2023-04-08T15:36:23;11.40;99.90
66013;DHT22;52783;50.502;8.190;2023-04-08T15:38:48;11.40;99.90
66013;DHT22;52783;50.502;8.190;2023-04-08T15:41:15;11.10;99.90
66013;DHT22;52783;50.502;8.190;2023-04-08T15:43:42;11.10;99.90
66013;DHT22;52783;50.502;8.190;2023-04-08T15:46:08;11.30;99.90
66013;DHT22;52783;50.502;8.190;2023-04-08T15:48:33;10.90;99.90
66013;DHT22;52783;50.502;8.190;2023-04-08T15:51:05;11.10;99.90
66013;DHT22;52783;50.502;8.190;2023-04-08T15:53:32;11.10;99.90
66013;DHT22;52783;50.502;8.190;2023-04-08T15:55:57;11.00;99.90
66013;DHT22;52783;50.502;8.190;2023-04-08T15:58:23;10.90;99.90
66013;DHT22;52783;50.502;8.190;2023-04-08T16:00:48;11.10;99.90